SHU5601 UHHH-UHWW
Flight info
| Callsign | SHU5601 |
|---|---|
| Flight time | 1h 7m |
| Altitude | 3500 |
| Route | ARDEL B355 BG G714 DAGES |
| Aircraft | A319/L-VGDW/C |
Departure
| Time | 2026-04-20 04:51 |
|---|---|
| Airport | Khabarovsk Novy Airport (UHHH) |
Arrival
| Time | 2026-04-20 05:59 |
|---|---|
| Airport | Vladivostok International Airport (UHWW) |
| Time | Latitude | Longitude | Altitude | Speed | Heading |
|---|---|---|---|---|---|
| 2026-04-20 04:30 | 48.52337 | 135.17255 | 257 ft | 0 kts | 310° |
| 2026-04-20 04:44 | 48.52337 | 135.17253 | 257 ft | 0 kts | 310° |
| 2026-04-20 04:44 | 48.52341 | 135.17247 | 257 ft | 2 kts | 310° |
| 2026-04-20 04:45 | 48.52369 | 135.17206 | 258 ft | 7 kts | 334° |
| 2026-04-20 04:45 | 48.52409 | 135.17241 | 259 ft | 7 kts | 46° |
| 2026-04-20 04:45 | 48.52446 | 135.17293 | 260 ft | 7 kts | 40° |
| 2026-04-20 04:45 | 48.52484 | 135.17342 | 261 ft | 7 kts | 40° |
| 2026-04-20 04:46 | 48.52516 | 135.17398 | 262 ft | 7 kts | 76° |
| 2026-04-20 04:46 | 48.52508 | 135.17425 | 261 ft | 2 kts | 136° |
| 2026-04-20 04:46 | 48.52488 | 135.17454 | 261 ft | 5 kts | 136° |
| 2026-04-20 04:46 | 48.52456 | 135.17503 | 260 ft | 8 kts | 132° |
| 2026-04-20 04:47 | 48.52412 | 135.17578 | 259 ft | 10 kts | 131° |
| 2026-04-20 04:47 | 48.52364 | 135.17660 | 256 ft | 0 kts | 131° |
| 2026-04-20 04:47 | 48.52351 | 135.17682 | 256 ft | 4 kts | 131° |
| 2026-04-20 04:47 | 48.52321 | 135.17734 | 254 ft | 8 kts | 133° |
| 2026-04-20 04:48 | 48.52281 | 135.17799 | 253 ft | 0 kts | 132° |
| 2026-04-20 04:48 | 48.52278 | 135.17804 | 253 ft | 1 kts | 131° |
| 2026-04-20 04:48 | 48.52275 | 135.17827 | 253 ft | 3 kts | 80° |
| 2026-04-20 04:48 | 48.52291 | 135.17871 | 253 ft | 6 kts | 47° |
| 2026-04-20 04:49 | 48.52323 | 135.17920 | 253 ft | 7 kts | 44° |
| 2026-04-20 04:49 | 48.52334 | 135.17932 | 253 ft | 1 kts | 39° |
| 2026-04-20 04:49 | 48.52344 | 135.17946 | 253 ft | 5 kts | 41° |
| 2026-04-20 04:49 | 48.52354 | 135.17960 | 253 ft | 10 kts | 41° |
| 2026-04-20 04:50 | 48.52441 | 135.18077 | 253 ft | 53 kts | 42° |
| 2026-04-20 04:50 | 48.52792 | 135.18553 | 253 ft | 112 kts | 41° |
| 2026-04-20 04:50 | 48.53524 | 135.19548 | 330 ft | 163 kts | 41° |
| 2026-04-20 04:51 | 48.54400 | 135.20773 | 829 ft | 178 kts | 50° |
| 2026-04-20 04:51 | 48.54750 | 135.22418 | 1849 ft | 170 kts | 95° |
| 2026-04-20 04:51 | 48.54351 | 135.24016 | 2761 ft | 164 kts | 129° |
| 2026-04-20 04:51 | 48.53468 | 135.25015 | 3436 ft | 168 kts | 163° |
| 2026-04-20 04:52 | 48.52276 | 135.25050 | 3984 ft | 181 kts | 190° |
| 2026-04-20 04:52 | 48.51007 | 135.24651 | 4612 ft | 195 kts | 190° |
| 2026-04-20 04:52 | 48.49625 | 135.24226 | 5066 ft | 215 kts | 191° |
| 2026-04-20 04:52 | 48.48109 | 135.23772 | 5712 ft | 231 kts | 190° |
| 2026-04-20 04:53 | 48.46480 | 135.23300 | 6352 ft | 246 kts | 191° |
| 2026-04-20 04:53 | 48.44793 | 135.22818 | 7076 ft | 256 kts | 191° |
| 2026-04-20 04:53 | 48.43039 | 135.22319 | 8039 ft | 257 kts | 193° |
| 2026-04-20 04:53 | 48.41338 | 135.21838 | 9128 ft | 252 kts | 190° |
| 2026-04-20 04:54 | 48.39634 | 135.21352 | 10035 ft | 253 kts | 190° |
| 2026-04-20 04:54 | 48.37882 | 135.20863 | 10739 ft | 263 kts | 191° |
| 2026-04-20 04:54 | 48.36033 | 135.20355 | 11210 ft | 280 kts | 192° |
| 2026-04-20 04:54 | 48.34076 | 135.19798 | 11681 ft | 294 kts | 192° |
| 2026-04-20 04:55 | 48.32053 | 135.19249 | 12321 ft | 301 kts | 192° |
| 2026-04-20 04:55 | 48.30009 | 135.18683 | 13157 ft | 302 kts | 193° |
| 2026-04-20 04:55 | 48.27940 | 135.18103 | 13977 ft | 304 kts | 194° |
| 2026-04-20 04:55 | 48.25860 | 135.17525 | 14712 ft | 306 kts | 194° |
| 2026-04-20 04:56 | 48.23763 | 135.16951 | 15425 ft | 309 kts | 195° |
| 2026-04-20 04:56 | 48.21639 | 135.16360 | 16027 ft | 313 kts | 195° |
| 2026-04-20 04:56 | 48.19522 | 135.15767 | 16590 ft | 316 kts | 195° |
| 2026-04-20 04:56 | 48.17543 | 135.15214 | 17148 ft | 320 kts | 196° |
| 2026-04-20 04:57 | 48.15130 | 135.14546 | 17794 ft | 324 kts | 197° |
| 2026-04-20 04:57 | 48.12954 | 135.13937 | 18437 ft | 325 kts | 195° |
| 2026-04-20 04:57 | 48.10722 | 135.13322 | 18962 ft | 330 kts | 197° |
| 2026-04-20 04:57 | 48.08452 | 135.12686 | 19614 ft | 330 kts | 197° |
| 2026-04-20 04:58 | 48.06192 | 135.12061 | 20147 ft | 332 kts | 197° |
| 2026-04-20 04:58 | 48.03932 | 135.11436 | 20625 ft | 337 kts | 196° |
| 2026-04-20 04:58 | 48.01626 | 135.10814 | 21201 ft | 338 kts | 197° |
| 2026-04-20 04:58 | 47.99308 | 135.10176 | 21815 ft | 339 kts | 196° |
| 2026-04-20 04:59 | 47.96998 | 135.09540 | 22322 ft | 341 kts | 197° |
| 2026-04-20 04:59 | 47.94675 | 135.08899 | 22847 ft | 343 kts | 197° |
| 2026-04-20 04:59 | 47.92347 | 135.08260 | 23302 ft | 345 kts | 197° |
| 2026-04-20 04:59 | 47.89973 | 135.07613 | 23781 ft | 348 kts | 197° |
| 2026-04-20 05:00 | 47.87576 | 135.06958 | 24246 ft | 350 kts | 197° |
| 2026-04-20 05:00 | 47.85199 | 135.06305 | 24747 ft | 351 kts | 197° |
| 2026-04-20 05:00 | 47.82809 | 135.05719 | 25234 ft | 353 kts | 194° |
| 2026-04-20 05:00 | 47.80334 | 135.05276 | 25666 ft | 358 kts | 192° |
| 2026-04-20 05:01 | 47.77866 | 135.05023 | 26100 ft | 362 kts | 189° |
| 2026-04-20 05:01 | 47.75326 | 135.04860 | 26571 ft | 363 kts | 189° |
| 2026-04-20 05:01 | 47.72805 | 135.04691 | 26994 ft | 365 kts | 189° |
| 2026-04-20 05:01 | 47.70285 | 135.04515 | 27408 ft | 366 kts | 189° |
| 2026-04-20 05:02 | 47.67747 | 135.04346 | 27753 ft | 369 kts | 190° |
| 2026-04-20 05:02 | 47.65187 | 135.04175 | 28150 ft | 371 kts | 189° |
| 2026-04-20 05:02 | 47.62596 | 135.04004 | 28526 ft | 372 kts | 189° |
| 2026-04-20 05:02 | 47.59993 | 135.03836 | 28890 ft | 374 kts | 189° |
| 2026-04-20 05:03 | 47.57420 | 135.03670 | 29251 ft | 375 kts | 189° |
| 2026-04-20 05:03 | 47.54796 | 135.03500 | 29548 ft | 378 kts | 189° |
| 2026-04-20 05:03 | 47.52187 | 135.03332 | 29941 ft | 378 kts | 189° |
| 2026-04-20 05:03 | 47.49562 | 135.03163 | 30439 ft | 376 kts | 189° |
| 2026-04-20 05:04 | 47.46976 | 135.03003 | 30958 ft | 373 kts | 189° |
| 2026-04-20 05:04 | 47.44404 | 135.02840 | 31387 ft | 370 kts | 188° |
| 2026-04-20 05:04 | 47.41846 | 135.02669 | 31783 ft | 368 kts | 188° |
| 2026-04-20 05:04 | 47.39285 | 135.02504 | 32233 ft | 366 kts | 188° |
| 2026-04-20 05:05 | 47.36763 | 135.02345 | 32617 ft | 365 kts | 189° |
| 2026-04-20 05:05 | 47.34225 | 135.02184 | 32903 ft | 367 kts | 189° |
| 2026-04-20 05:05 | 47.31699 | 135.02022 | 33249 ft | 367 kts | 189° |
| 2026-04-20 05:05 | 47.29145 | 135.01863 | 33492 ft | 369 kts | 188° |
| 2026-04-20 05:06 | 47.26568 | 135.01709 | 33718 ft | 370 kts | 189° |
| 2026-04-20 05:06 | 47.23986 | 135.01541 | 34003 ft | 371 kts | 188° |
| 2026-04-20 05:06 | 47.21422 | 135.01373 | 34340 ft | 369 kts | 190° |
| 2026-04-20 05:06 | 47.18904 | 135.01210 | 34685 ft | 365 kts | 188° |
| 2026-04-20 05:07 | 47.16367 | 135.01059 | 34974 ft | 363 kts | 189° |
| 2026-04-20 05:07 | 47.13829 | 135.00893 | 35140 ft | 364 kts | 189° |
| 2026-04-20 05:07 | 47.11306 | 135.00737 | 35279 ft | 367 kts | 190° |
| 2026-04-20 05:08 | 47.06220 | 135.00415 | 35479 ft | 368 kts | 191° |
| 2026-04-20 05:08 | 47.03667 | 135.00252 | 35673 ft | 368 kts | 189° |
| 2026-04-20 05:08 | 47.01107 | 135.00087 | 35859 ft | 368 kts | 190° |
| 2026-04-20 05:09 | 46.95971 | 134.99765 | 36007 ft | 371 kts | 190° |
| 2026-04-20 05:09 | 46.93386 | 134.99597 | 36181 ft | 372 kts | 189° |
| 2026-04-20 05:09 | 46.90784 | 134.99443 | 36292 ft | 373 kts | 188° |
| 2026-04-20 05:09 | 46.88213 | 134.99283 | 36397 ft | 374 kts | 190° |
| 2026-04-20 05:10 | 46.85595 | 134.99127 | 36619 ft | 375 kts | 189° |
| 2026-04-20 05:10 | 46.83014 | 134.98965 | 36774 ft | 375 kts | 189° |
| 2026-04-20 05:10 | 46.80417 | 134.98685 | 36992 ft | 373 kts | 193° |
| 2026-04-20 05:10 | 46.77853 | 134.98326 | 37183 ft | 373 kts | 193° |
| 2026-04-20 05:11 | 46.75274 | 134.97975 | 37356 ft | 374 kts | 192° |
| 2026-04-20 05:11 | 46.72671 | 134.97626 | 37490 ft | 374 kts | 192° |
| 2026-04-20 05:11 | 46.70092 | 134.97284 | 37588 ft | 374 kts | 192° |
| 2026-04-20 05:12 | 46.64910 | 134.96582 | 37628 ft | 375 kts | 192° |
| 2026-04-20 05:12 | 46.59712 | 134.95883 | 37657 ft | 376 kts | 193° |
| 2026-04-20 05:13 | 46.54530 | 134.95183 | 37602 ft | 376 kts | 193° |
| 2026-04-20 05:13 | 46.49332 | 134.94481 | 37582 ft | 377 kts | 192° |
| 2026-04-20 05:14 | 46.44113 | 134.93780 | 37682 ft | 377 kts | 193° |
| 2026-04-20 05:14 | 46.38894 | 134.93079 | 37613 ft | 376 kts | 192° |
| 2026-04-20 05:15 | 46.33675 | 134.92375 | 37613 ft | 375 kts | 192° |
| 2026-04-20 05:15 | 46.28473 | 134.91681 | 37674 ft | 374 kts | 192° |
| 2026-04-20 05:16 | 46.23310 | 134.90996 | 37607 ft | 375 kts | 192° |
| 2026-04-20 05:16 | 46.18097 | 134.90300 | 37630 ft | 375 kts | 192° |
| 2026-04-20 05:17 | 46.12927 | 134.89610 | 37602 ft | 374 kts | 193° |
| 2026-04-20 05:17 | 46.07715 | 134.88925 | 37704 ft | 376 kts | 193° |
| 2026-04-20 05:18 | 46.02502 | 134.88237 | 37647 ft | 375 kts | 193° |
| 2026-04-20 05:18 | 45.97350 | 134.87450 | 37597 ft | 372 kts | 195° |
| 2026-04-20 05:19 | 45.92308 | 134.85933 | 37669 ft | 368 kts | 202° |
| 2026-04-20 05:19 | 45.87495 | 134.83661 | 37629 ft | 367 kts | 206° |
| 2026-04-20 05:20 | 45.82877 | 134.80649 | 37603 ft | 364 kts | 212° |
| 2026-04-20 05:20 | 45.78474 | 134.77148 | 37665 ft | 364 kts | 213° |
| 2026-04-20 05:21 | 45.74089 | 134.73637 | 37614 ft | 362 kts | 212° |
| 2026-04-20 05:21 | 45.69679 | 134.70110 | 37628 ft | 363 kts | 212° |
| 2026-04-20 05:22 | 45.65321 | 134.66612 | 37674 ft | 362 kts | 213° |
| 2026-04-20 05:22 | 45.60929 | 134.63080 | 37621 ft | 361 kts | 213° |
| 2026-04-20 05:23 | 45.56549 | 134.59561 | 37630 ft | 362 kts | 212° |
| 2026-04-20 05:23 | 45.52158 | 134.56056 | 37688 ft | 362 kts | 213° |
| 2026-04-20 05:23 | 45.49956 | 134.54300 | 37585 ft | 363 kts | 212° |
| 2026-04-20 05:24 | 45.47782 | 134.52562 | 37670 ft | 363 kts | 213° |
| 2026-04-20 05:24 | 45.43365 | 134.49045 | 37717 ft | 364 kts | 213° |
| 2026-04-20 05:25 | 45.38975 | 134.45549 | 37649 ft | 363 kts | 213° |
| 2026-04-20 05:25 | 45.34565 | 134.42042 | 37605 ft | 365 kts | 213° |
| 2026-04-20 05:26 | 45.30136 | 134.38527 | 37664 ft | 365 kts | 212° |
| 2026-04-20 05:26 | 45.25716 | 134.35033 | 37723 ft | 365 kts | 212° |
| 2026-04-20 05:26 | 45.23498 | 134.33269 | 37618 ft | 364 kts | 212° |
| 2026-04-20 05:27 | 45.21286 | 134.31509 | 37601 ft | 365 kts | 212° |
| 2026-04-20 05:27 | 45.16886 | 134.28023 | 37669 ft | 364 kts | 212° |
| 2026-04-20 05:28 | 45.12460 | 134.24528 | 37686 ft | 363 kts | 213° |
| 2026-04-20 05:28 | 45.08061 | 134.21072 | 37608 ft | 364 kts | 213° |
| 2026-04-20 05:29 | 45.03646 | 134.17603 | 37704 ft | 365 kts | 213° |
| 2026-04-20 05:29 | 44.99202 | 134.14117 | 37649 ft | 364 kts | 212° |
| 2026-04-20 05:30 | 44.94788 | 134.10678 | 37644 ft | 364 kts | 212° |
| 2026-04-20 05:30 | 44.92550 | 134.08933 | 37517 ft | 363 kts | 212° |
| 2026-04-20 05:30 | 44.90353 | 134.07219 | 37659 ft | 363 kts | 212° |
| 2026-04-20 05:31 | 44.85934 | 134.03801 | 37655 ft | 363 kts | 212° |
| 2026-04-20 05:31 | 44.81520 | 134.00326 | 37678 ft | 364 kts | 214° |
| 2026-04-20 05:32 | 44.77159 | 133.96744 | 37657 ft | 364 kts | 213° |
| 2026-04-20 05:32 | 44.72792 | 133.93158 | 37624 ft | 363 kts | 213° |
| 2026-04-20 05:33 | 44.68455 | 133.89603 | 37618 ft | 362 kts | 213° |
| 2026-04-20 05:33 | 44.64099 | 133.86053 | 37472 ft | 361 kts | 213° |
| 2026-04-20 05:33 | 44.61928 | 133.84283 | 36892 ft | 362 kts | 213° |
| 2026-04-20 05:34 | 44.59748 | 133.82501 | 35996 ft | 367 kts | 213° |
| 2026-04-20 05:34 | 44.57556 | 133.80718 | 35197 ft | 371 kts | 213° |
| 2026-04-20 05:34 | 44.53078 | 133.77081 | 33483 ft | 375 kts | 213° |
| 2026-04-20 05:35 | 44.50853 | 133.75273 | 32524 ft | 378 kts | 212° |
| 2026-04-20 05:35 | 44.48573 | 133.73424 | 31648 ft | 378 kts | 211° |
| 2026-04-20 05:35 | 44.46316 | 133.71600 | 30838 ft | 376 kts | 212° |
| 2026-04-20 05:35 | 44.44060 | 133.69778 | 30081 ft | 374 kts | 212° |
| 2026-04-20 05:36 | 44.41832 | 133.67975 | 29361 ft | 372 kts | 211° |
| 2026-04-20 05:36 | 44.39588 | 133.66159 | 28589 ft | 372 kts | 211° |
| 2026-04-20 05:36 | 44.37383 | 133.64386 | 27815 ft | 371 kts | 211° |
| 2026-04-20 05:36 | 44.35148 | 133.62582 | 27247 ft | 365 kts | 211° |
| 2026-04-20 05:37 | 44.32974 | 133.60841 | 26758 ft | 358 kts | 211° |
| 2026-04-20 05:37 | 44.30851 | 133.59137 | 26277 ft | 351 kts | 211° |
| 2026-04-20 05:37 | 44.28762 | 133.57451 | 25791 ft | 345 kts | 211° |
| 2026-04-20 05:37 | 44.26706 | 133.55806 | 25330 ft | 339 kts | 212° |
| 2026-04-20 05:38 | 44.24678 | 133.54182 | 24858 ft | 334 kts | 211° |
| 2026-04-20 05:38 | 44.22689 | 133.52583 | 24380 ft | 328 kts | 211° |
| 2026-04-20 05:38 | 44.20728 | 133.51013 | 23925 ft | 324 kts | 211° |
| 2026-04-20 05:38 | 44.18811 | 133.49477 | 23487 ft | 320 kts | 210° |
| 2026-04-20 05:39 | 44.16888 | 133.47942 | 23017 ft | 316 kts | 211° |
| 2026-04-20 05:39 | 44.14992 | 133.46423 | 22599 ft | 313 kts | 211° |
| 2026-04-20 05:39 | 44.13129 | 133.44939 | 22152 ft | 309 kts | 211° |
| 2026-04-20 05:39 | 44.11285 | 133.43465 | 21704 ft | 306 kts | 211° |
| 2026-04-20 05:40 | 44.09438 | 133.41989 | 21285 ft | 304 kts | 211° |
| 2026-04-20 05:40 | 44.07627 | 133.40549 | 20878 ft | 302 kts | 211° |
| 2026-04-20 05:40 | 44.05803 | 133.39090 | 20416 ft | 300 kts | 211° |
| 2026-04-20 05:40 | 44.04015 | 133.37663 | 20030 ft | 299 kts | 210° |
| 2026-04-20 05:41 | 44.02212 | 133.36232 | 19620 ft | 298 kts | 210° |
| 2026-04-20 05:41 | 44.00433 | 133.34821 | 19219 ft | 297 kts | 210° |
| 2026-04-20 05:41 | 43.98643 | 133.33391 | 18809 ft | 295 kts | 210° |
| 2026-04-20 05:41 | 43.96861 | 133.31969 | 18400 ft | 293 kts | 210° |
| 2026-04-20 05:42 | 43.95103 | 133.30569 | 18003 ft | 292 kts | 209° |
| 2026-04-20 05:42 | 43.93352 | 133.29179 | 17586 ft | 291 kts | 210° |
| 2026-04-20 05:42 | 43.91604 | 133.27794 | 17200 ft | 291 kts | 210° |
| 2026-04-20 05:42 | 43.89905 | 133.26282 | 16829 ft | 290 kts | 216° |
| 2026-04-20 05:43 | 43.88385 | 133.24449 | 16448 ft | 290 kts | 222° |
| 2026-04-20 05:43 | 43.87056 | 133.22327 | 16077 ft | 291 kts | 230° |
| 2026-04-20 05:43 | 43.85905 | 133.20073 | 15732 ft | 291 kts | 231° |
| 2026-04-20 05:43 | 43.84755 | 133.17755 | 15330 ft | 292 kts | 231° |
| 2026-04-20 05:44 | 43.83614 | 133.15449 | 14886 ft | 292 kts | 231° |
| 2026-04-20 05:44 | 43.82467 | 133.13124 | 14464 ft | 292 kts | 232° |
| 2026-04-20 05:44 | 43.81333 | 133.10817 | 14044 ft | 293 kts | 232° |
| 2026-04-20 05:44 | 43.80187 | 133.08491 | 13573 ft | 294 kts | 232° |
| 2026-04-20 05:45 | 43.79044 | 133.06160 | 13140 ft | 293 kts | 232° |
| 2026-04-20 05:45 | 43.77903 | 133.03839 | 12704 ft | 292 kts | 231° |
| 2026-04-20 05:45 | 43.76758 | 133.01509 | 12288 ft | 291 kts | 231° |
| 2026-04-20 05:45 | 43.75629 | 132.99220 | 11897 ft | 289 kts | 231° |
| 2026-04-20 05:46 | 43.74506 | 132.96944 | 11472 ft | 288 kts | 231° |
| 2026-04-20 05:46 | 43.73392 | 132.94682 | 11064 ft | 286 kts | 231° |
| 2026-04-20 05:46 | 43.72265 | 132.92400 | 10660 ft | 284 kts | 231° |
| 2026-04-20 05:46 | 43.71170 | 132.90179 | 10289 ft | 280 kts | 231° |
| 2026-04-20 05:47 | 43.70084 | 132.87976 | 9984 ft | 273 kts | 231° |
| 2026-04-20 05:47 | 43.69049 | 132.85879 | 9880 ft | 258 kts | 231° |
| 2026-04-20 05:47 | 43.68068 | 132.83891 | 9821 ft | 245 kts | 230° |
| 2026-04-20 05:47 | 43.67130 | 132.81992 | 9779 ft | 233 kts | 229° |
| 2026-04-20 05:48 | 43.66238 | 132.80174 | 9650 ft | 230 kts | 231° |
| 2026-04-20 05:48 | 43.65410 | 132.78264 | 9272 ft | 232 kts | 234° |
| 2026-04-20 05:48 | 43.64621 | 132.76346 | 8968 ft | 231 kts | 234° |
| 2026-04-20 05:48 | 43.63823 | 132.74411 | 8647 ft | 231 kts | 234° |
| 2026-04-20 05:49 | 43.63034 | 132.72496 | 8324 ft | 231 kts | 234° |
| 2026-04-20 05:49 | 43.62245 | 132.70587 | 7991 ft | 231 kts | 235° |
| 2026-04-20 05:49 | 43.61445 | 132.68639 | 7672 ft | 231 kts | 235° |
| 2026-04-20 05:49 | 43.60650 | 132.66708 | 7336 ft | 233 kts | 236° |
| 2026-04-20 05:50 | 43.59853 | 132.64775 | 7030 ft | 233 kts | 236° |
| 2026-04-20 05:50 | 43.59058 | 132.62843 | 6937 ft | 229 kts | 236° |
| 2026-04-20 05:50 | 43.58295 | 132.60982 | 6915 ft | 216 kts | 236° |
| 2026-04-20 05:50 | 43.57582 | 132.59245 | 6887 ft | 203 kts | 236° |
| 2026-04-20 05:51 | 43.56906 | 132.57597 | 6889 ft | 188 kts | 235° |
| 2026-04-20 05:51 | 43.56287 | 132.56093 | 6853 ft | 178 kts | 235° |
| 2026-04-20 05:51 | 43.55672 | 132.54610 | 6597 ft | 177 kts | 234° |
| 2026-04-20 05:51 | 43.55062 | 132.53142 | 6315 ft | 177 kts | 235° |
| 2026-04-20 05:52 | 43.54446 | 132.51666 | 6008 ft | 179 kts | 235° |
| 2026-04-20 05:52 | 43.53831 | 132.50182 | 5712 ft | 179 kts | 236° |
| 2026-04-20 05:52 | 43.53215 | 132.48682 | 5452 ft | 179 kts | 236° |
| 2026-04-20 05:52 | 43.52620 | 132.47192 | 5241 ft | 176 kts | 237° |
| 2026-04-20 05:53 | 43.52036 | 132.45729 | 4833 ft | 176 kts | 237° |
| 2026-04-20 05:53 | 43.51445 | 132.44253 | 4386 ft | 178 kts | 238° |
| 2026-04-20 05:53 | 43.50853 | 132.42780 | 4028 ft | 177 kts | 237° |
| 2026-04-20 05:53 | 43.50260 | 132.41293 | 3817 ft | 180 kts | 240° |
| 2026-04-20 05:54 | 43.49659 | 132.39784 | 3610 ft | 179 kts | 240° |
| 2026-04-20 05:54 | 43.49060 | 132.38283 | 3386 ft | 177 kts | 240° |
| 2026-04-20 05:54 | 43.48455 | 132.36784 | 3319 ft | 180 kts | 240° |
| 2026-04-20 05:54 | 43.47855 | 132.35278 | 3139 ft | 180 kts | 239° |
| 2026-04-20 05:55 | 43.47259 | 132.33781 | 2942 ft | 178 kts | 237° |
| 2026-04-20 05:55 | 43.46685 | 132.32323 | 2828 ft | 164 kts | 235° |
| 2026-04-20 05:55 | 43.46135 | 132.30955 | 2462 ft | 163 kts | 239° |
| 2026-04-20 05:55 | 43.45588 | 132.29593 | 2191 ft | 159 kts | 238° |
| 2026-04-20 05:56 | 43.45068 | 132.28276 | 1901 ft | 154 kts | 237° |
| 2026-04-20 05:56 | 43.44572 | 132.27013 | 1697 ft | 144 kts | 233° |
| 2026-04-20 05:56 | 43.44114 | 132.25856 | 1516 ft | 136 kts | 234° |
| 2026-04-20 05:56 | 43.43653 | 132.24719 | 1334 ft | 136 kts | 234° |
| 2026-04-20 05:57 | 43.43190 | 132.23583 | 1164 ft | 135 kts | 234° |
| 2026-04-20 05:57 | 43.42745 | 132.22484 | 967 ft | 129 kts | 234° |
| 2026-04-20 05:57 | 43.42309 | 132.21410 | 795 ft | 128 kts | 234° |
| 2026-04-20 05:57 | 43.41876 | 132.20344 | 622 ft | 127 kts | 235° |
| 2026-04-20 05:58 | 43.41443 | 132.19278 | 453 ft | 127 kts | 236° |
| 2026-04-20 05:58 | 43.41012 | 132.18214 | 285 ft | 127 kts | 237° |
| 2026-04-20 05:58 | 43.40586 | 132.17166 | 108 ft | 125 kts | 237° |
| 2026-04-20 05:58 | 43.40195 | 132.16209 | 49 ft | 89 kts | 239° |
| 2026-04-20 05:59 | 43.40002 | 132.15723 | 57 ft | 44 kts | 240° |
| 2026-04-20 05:59 | 43.39870 | 132.15395 | 59 ft | 29 kts | 240° |
| 2026-04-20 05:59 | 43.39770 | 132.15152 | 59 ft | 28 kts | 241° |
| 2026-04-20 05:59 | 43.39675 | 132.14920 | 57 ft | 27 kts | 242° |